Time;durP1;ratioP1;P1;durP2;ratioP2;P2;SDS_P1;SDS_P2;PMS_P1;PMS_P2;Temp;Humidity;BMP_temperature;BMP_pressure;BME280_temperature;BME280_humidity;BME280_pressure;Samples;Min_cycle;Max_cycle;Signal;HPM_P1;HPM_P2
2023/05/09 00:00:46;;;;;;;0.55;0.38;;;;;;;11.10;90.11;101914.22;4995210;28;20084;-88
2023/05/09 00:03:14;;;;;;;0.82;0.70;;;;;;;11.32;91.88;101945.50;5011752;28;20081;-89
2023/05/09 00:05:40;;;;;;;0.47;0.40;;;;;;;11.31;90.65;101948.16;4979768;28;20046;-89
2023/05/09 00:08:05;;;;;;;1.15;0.38;;;;;;;11.24;90.24;101937.13;5012039;28;20515;-89
2023/05/09 00:10:31;;;;;;;1.77;0.98;;;;;;;11.29;91.12;101949.91;4978965;28;20133;-90
2023/05/09 00:12:57;;;;;;;1.48;0.68;;;;;;;11.26;90.74;101955.22;4994983;28;20054;-88
2023/05/09 00:15:24;;;;;;;0.65;0.65;;;;;;;11.26;90.15;101950.03;4995072;28;20022;-89
2023/05/09 00:17:50;;;;;;;1.33;0.85;;;;;;;11.04;89.15;101921.34;4995350;28;20109;-89
2023/05/09 00:20:15;;;;;;;0.52;0.50;;;;;;;11.09;89.14;101953.97;5011639;28;20029;-88
2023/05/09 00:22:41;;;;;;;0.65;0.45;;;;;;;10.96;89.68;101936.25;4995052;28;20030;-90
2023/05/09 00:25:07;;;;;;;1.42;0.82;;;;;;;11.12;90.49;101947.88;4995340;28;20026;-90
2023/05/09 00:27:33;;;;;;;1.17;0.75;;;;;;;11.06;90.49;101932.50;4978777;28;20076;-88
2023/05/09 00:29:58;;;;;;;0.60;0.55;;;;;;;11.01;89.70;101935.25;4994663;28;20088;-90
2023/05/09 00:32:25;;;;;;;1.05;0.88;;;;;;;10.95;89.99;101935.41;4978767;28;20034;-88
2023/05/09 00:34:50;;;;;;;1.25;0.77;;;;;;;11.02;89.66;101938.69;4994965;28;20180;-88
2023/05/09 00:37:18;;;;;;;0.93;0.80;;;;;;;11.00;90.66;101937.84;4994714;28;20484;-89
2023/05/09 00:39:44;;;;;;;0.90;0.70;;;;;;;11.11;90.22;101944.44;5010799;28;20026;-90
2023/05/09 00:42:09;;;;;;;0.60;0.40;;;;;;;11.13;89.70;101952.16;4995148;28;20128;-89
2023/05/09 00:44:35;;;;;;;1.38;0.95;;;;;;;11.06;88.97;101938.53;4978247;28;20426;-90
2023/05/09 00:47:00;;;;;;;0.43;0.43;;;;;;;11.02;89.79;101942.13;4994546;28;20509;-90
2023/05/09 00:49:25;;;;;;;0.82;0.68;;;;;;;11.11;90.45;101949.59;4994666;28;20037;-90
2023/05/09 00:51:51;;;;;;;1.90;0.85;;;;;;;11.13;91.10;101952.16;4994503;28;20038;-90
2023/05/09 00:54:16;;;;;;;5.45;1.23;;;;;;;11.15;90.69;101958.13;4994412;28;20494;-88
2023/05/09 00:56:42;;;;;;;1.20;0.75;;;;;;;10.95;90.40;101919.03;4994514;28;20388;-90
2023/05/09 00:59:07;;;;;;;2.10;1.00;;;;;;;11.17;89.63;101958.91;4978168;28;20052;-89
2023/05/09 01:01:33;;;;;;;0.52;0.52;;;;;;;11.12;90.26;101956.47;4994143;28;20029;-89
2023/05/09 01:03:58;;;;;;;0.95;0.80;;;;;;;11.11;90.56;101957.38;5010529;28;20498;-89
2023/05/09 01:06:30;;;;;;;0.73;0.60;;;;;;;11.19;91.58;101965.75;4977863;28;20028;-89
2023/05/09 01:09:02;;;;;;;0.30;0.30;;;;;;;11.29;92.28;101957.69;5010464;28;20410;-90
2023/05/09 01:11:32;;;;;;;1.17;0.88;;;;;;;11.18;91.13;101940.75;4993821;28;20030;-88
2023/05/09 01:14:19;;;;;;;1.00;0.80;;;;;;;11.32;91.07;101961.06;5010519;28;20092;-89
2023/05/09 01:17:12;;;;;;;0.73;0.63;;;;;;;11.21;90.61;101963.13;5010331;28;20026;-88
2023/05/09 01:19:46;;;;;;;0.75;0.55;;;;;;;11.17;90.80;101952.00;4994160;28;20053;-90
2023/05/09 01:22:12;;;;;;;0.93;0.60;;;;;;;11.22;90.33;101974.34;5010402;28;20092;-89
2023/05/09 01:24:41;;;;;;;0.95;0.75;;;;;;;11.19;90.63;101970.91;5010213;28;20433;-90
2023/05/09 01:27:44;;;;;;;1.05;0.80;;;;;;;11.12;90.33;101974.63;5009992;28;20061;-89
2023/05/09 01:30:10;;;;;;;1.83;1.17;;;;;;;10.96;90.67;101973.34;5011175;28;20034;-88
2023/05/09 01:32:36;;;;;;;1.45;0.90;;;;;;;10.91;90.61;101954.50;4994259;28;20072;-89
2023/05/09 01:35:01;;;;;;;0.40;0.40;;;;;;;11.02;91.33;101968.00;4977643;28;20447;-88
2023/05/09 01:37:32;;;;;;;0.93;0.77;;;;;;;10.98;90.71;101966.38;4977464;28;20513;-90
2023/05/09 01:40:00;;;;;;;0.50;0.50;;;;;;;10.88;90.68;101954.59;4977752;28;20026;-90
2023/05/09 01:42:28;;;;;;;0.95;0.77;;;;;;;10.93;90.56;101952.75;4993655;28;20076;-88
2023/05/09 01:44:54;;;;;;;0.57;0.57;;;;;;;10.91;90.22;101962.25;4993954;28;20113;-88
2023/05/09 01:47:19;;;;;;;0.60;0.60;;;;;;;11.03;90.30;101974.03;4993490;28;20037;-89
2023/05/09 01:49:45;;;;;;;1.35;1.13;;;;;;;10.86;89.78;101969.34;4993791;28;20037;-89
2023/05/09 01:52:12;;;;;;;1.00;0.90;;;;;;;10.88;90.12;101970.13;4993730;28;20045;-89
2023/05/09 01:54:37;;;;;;;0.82;0.60;;;;;;;10.73;90.49;101952.47;5009921;28;20038;-90
2023/05/09 01:57:03;;;;;;;1.10;0.82;;;;;;;10.80;91.28;101952.22;4977177;28;20034;-89
2023/05/09 01:59:29;;;;;;;0.88;0.57;;;;;;;10.93;90.67;101957.91;4993921;28;20033;-88
2023/05/09 02:01:55;;;;;;;0.80;0.80;;;;;;;10.95;90.86;101976.00;4993788;28;20483;-88
2023/05/09 02:04:20;;;;;;;0.60;0.52;;;;;;;10.90;89.96;101978.69;4993514;28;20084;-90
2023/05/09 02:06:49;;;;;;;1.95;0.70;;;;;;;10.63;89.18;101929.44;4977130;28;20433;-87
2023/05/09 02:09:14;;;;;;;0.73;0.60;;;;;;;10.77;89.39;101954.91;5009600;28;20579;-89
2023/05/09 02:11:40;;;;;;;1.08;0.98;;;;;;;10.93;89.98;101970.03;4993495;28;20069;-88
2023/05/09 02:14:06;;;;;;;1.10;0.90;;;;;;;10.88;89.94;101964.97;4993556;28;20407;-89
2023/05/09 02:16:31;;;;;;;2.17;1.40;;;;;;;11.00;91.11;101980.13;4996435;28;20030;-87
2023/05/09 02:18:57;;;;;;;1.02;0.90;;;;;;;10.93;90.80;101968.28;4997013;28;20030;-88
2023/05/09 02:21:23;;;;;;;1.75;0.93;;;;;;;11.06;90.62;101989.47;5014801;28;20021;-89
2023/05/09 02:23:49;;;;;;;2.10;1.17;;;;;;;11.04;90.35;101991.25;4980893;28;20037;-89
2023/05/09 02:26:14;;;;;;;1.95;1.05;;;;;;;10.81;90.26;101971.19;4980570;28;20033;-90
2023/05/09 02:28:40;;;;;;;2.58;1.08;;;;;;;10.80;89.96;101972.09;4997072;28;20041;-88
2023/05/09 02:31:05;;;;;;;1.40;1.30;;;;;;;10.91;90.12;101983.84;4997217;28;20128;-89
2023/05/09 02:33:32;;;;;;;1.50;0.95;;;;;;;10.88;88.99;101983.06;4997442;28;20399;-88
2023/05/09 02:35:57;;;;;;;1.40;1.17;;;;;;;10.80;88.99;101961.72;4996742;28;20029;-88
2023/05/09 02:38:22;;;;;;;2.42;1.23;;;;;;;10.96;89.32;101975.94;4980653;28;20487;-90
2023/05/09 02:40:48;;;;;;;2.17;1.83;;;;;;;10.91;89.53;101957.97;4996427;28;20491;-89
2023/05/09 02:43:14;;;;;;;2.30;1.60;;;;;;;10.78;88.36;101973.88;5013260;28;20498;-88
2023/05/09 02:45:39;;;;;;;3.90;1.63;;;;;;;10.70;89.28;101987.03;4980683;28;20478;-89
2023/05/09 02:48:05;;;;;;;2.83;1.50;;;;;;;10.38;89.63;101935.31;4996884;28;20026;-89
2023/05/09 02:50:30;;;;;;;2.78;1.48;;;;;;;10.68;90.26;101972.44;4996865;28;20529;-88
2023/05/09 02:52:56;;;;;;;2.28;1.63;;;;;;;10.63;89.20;101976.00;4996689;28;20032;-88
2023/05/09 02:55:21;;;;;;;1.80;1.30;;;;;;;10.54;89.28;101976.25;4996578;28;20030;-88
2023/05/09 02:57:47;;;;;;;1.75;1.38;;;;;;;10.60;89.79;101986.44;4996360;28;20479;-87
2023/05/09 03:00:13;;;;;;;4.80;2.35;;;;;;;10.31;89.75;101968.25;4980210;28;20030;-88
2023/05/09 03:02:38;;;;;;;3.53;2.17;;;;;;;10.40;91.33;101970.59;5012392;28;20033;-86
2023/05/09 03:05:04;;;;;;;1.98;1.02;;;;;;;10.48;90.16;102002.28;4996027;28;20033;-88
2023/05/09 03:07:30;;;;;;;4.25;2.28;;;;;;;10.41;90.10;101987.81;4995896;28;20046;-85
2023/05/09 03:09:55;;;;;;;2.25;1.85;;;;;;;10.53;90.49;101990.09;4995811;28;20030;-85
2023/05/09 03:12:20;;;;;;;2.38;1.67;;;;;;;10.31;90.29;101974.28;5012143;28;20500;-85
2023/05/09 03:14:46;;;;;;;2.88;1.73;;;;;;;10.44;90.13;102003.28;4995927;28;20475;-86
2023/05/09 03:17:16;;;;;;;1.65;1.40;;;;;;;10.37;90.67;101993.97;4979891;28;20030;-85
2023/05/09 03:19:41;;;;;;;2.25;1.85;;;;;;;10.34;91.09;102014.75;4996677;28;20064;-85
2023/05/09 03:22:07;;;;;;;2.58;1.80;;;;;;;10.31;91.41;102010.50;5011992;28;20038;-85
2023/05/09 03:24:32;;;;;;;2.35;1.50;;;;;;;10.07;90.84;101980.91;4995747;28;20502;-85
2023/05/09 03:26:57;;;;;;;2.75;2.25;;;;;;;10.20;91.58;102002.13;5010879;28;20388;-84
2023/05/09 03:29:23;;;;;;;2.53;1.80;;;;;;;10.09;91.68;102016.22;4995886;28;20022;-84
2023/05/09 03:31:48;;;;;;;2.63;1.80;;;;;;;10.07;92.31;102027.44;4995792;28;20038;-85
2023/05/09 03:34:14;;;;;;;2.40;2.17;;;;;;;10.18;92.30;102028.91;4995575;28;20029;-86
2023/05/09 03:36:42;;;;;;;4.03;2.10;;;;;;;10.15;92.42;102034.19;5026567;28;20100;-88
2023/05/09 03:39:08;;;;;;;3.70;2.28;;;;;;;10.14;92.53;102032.50;5014836;28;20034;-90
2023/05/09 03:41:35;;;;;;;2.83;2.25;;;;;;;10.12;91.88;102023.88;5015217;28;20029;-86
2023/05/09 03:44:00;;;;;;;3.83;3.33;;;;;;;10.21;92.33;102044.34;5015997;28;20040;-92
2023/05/09 03:46:26;;;;;;;3.35;2.35;;;;;;;10.29;92.51;102037.28;5032274;28;20038;-91
2023/05/09 03:48:51;;;;;;;3.92;2.25;;;;;;;10.13;91.22;102030.75;5015411;28;20040;-89
2023/05/09 03:51:17;;;;;;;2.60;1.95;;;;;;;10.22;91.90;102044.34;5015946;28;20033;-92
2023/05/09 03:53:44;;;;;;;4.07;2.50;;;;;;;10.17;90.86;102043.59;5015781;28;20033;-91
2023/05/09 03:56:10;;;;;;;2.10;1.75;;;;;;;10.20;91.63;102042.66;5015939;28;20021;-92
2023/05/09 03:58:35;;;;;;;2.95;2.15;;;;;;;10.03;91.50;102023.25;4998778;28;20025;-90
2023/05/09 04:01:01;;;;;;;2.63;2.10;;;;;;;10.21;91.57;102044.34;5030742;28;20036;-86
2023/05/09 04:03:26;;;;;;;2.33;1.92;;;;;;;10.15;90.70;102040.19;4996746;28;20038;-88
2023/05/09 04:05:52;;;;;;;3.35;2.00;;;;;;;10.25;90.68;102040.84;4998301;28;20075;-86
2023/05/09 04:08:18;;;;;;;3.35;2.60;;;;;;;10.14;90.84;102032.50;5030842;28;20040;-88
2023/05/09 04:10:43;;;;;;;3.38;1.95;;;;;;;10.27;90.65;102050.25;5031196;28;20029;-86
2023/05/09 04:13:09;;;;;;;3.78;2.35;;;;;;;10.27;91.49;102033.91;5030510;28;20050;-86
2023/05/09 04:15:35;;;;;;;3.20;2.50;;;;;;;10.21;90.16;102023.66;5031787;28;20026;-83
2023/05/09 04:18:00;;;;;;;2.40;1.88;;;;;;;10.23;89.27;102043.47;5024549;28;20107;-87
2023/05/09 04:20:26;;;;;;;2.47;2.05;;;;;;;10.14;89.31;102037.66;5003334;28;20097;-85
2023/05/09 04:22:52;;;;;;;2.17;1.95;;;;;;;10.23;89.14;102053.81;5029273;28;20033;-84
2023/05/09 04:25:19;;;;;;;4.55;2.90;;;;;;;10.18;89.63;102047.03;5015014;28;20022;-82
2023/05/09 04:27:45;;;;;;;4.13;1.75;;;;;;;10.15;88.91;102057.44;5011920;28;20029;-84
2023/05/09 04:30:10;;;;;;;3.67;2.45;;;;;;;10.02;89.30;102055.13;4995219;28;20146;-92
2023/05/09 04:32:36;;;;;;;7.38;3.20;;;;;;;10.12;89.35;102052.34;5014703;28;21146;-93
2023/05/09 04:35:02;;;;;;;7.47;1.95;;;;;;;9.98;88.73;102050.09;5014634;28;20100;-91
2023/05/09 04:37:28;;;;;;;3.10;2.00;;;;;;;10.09;88.70;102057.59;5002073;28;20032;-90
2023/05/09 04:39:53;;;;;;;3.15;2.53;;;;;;;10.02;89.10;102049.97;5010214;28;20408;-88
2023/05/09 04:42:19;;;;;;;3.05;2.08;;;;;;;10.04;89.46;102068.91;5009586;28;20041;-84
2023/05/09 04:44:45;;;;;;;1.92;1.63;;;;;;;10.07;89.64;102083.50;5021353;28;20511;-83
2023/05/09 04:47:10;;;;;;;3.50;2.58;;;;;;;10.06;89.32;102072.28;5013837;28;20072;-88
2023/05/09 04:49:36;;;;;;;5.07;3.30;;;;;;;10.05;89.81;102060.25;5013188;28;20037;-91
2023/05/09 04:52:01;;;;;;;22.75;11.57;;;;;;;10.07;90.12;102062.81;5031630;28;20057;-87
2023/05/09 04:54:27;;;;;;;3.65;2.50;;;;;;;10.06;90.19;102056.78;5030158;28;20026;-83
2023/05/09 04:56:52;;;;;;;3.40;2.13;;;;;;;10.15;89.98;102080.72;5014102;28;20030;-85
2023/05/09 04:59:18;;;;;;;3.90;2.38;;;;;;;10.14;90.36;102069.53;5028288;28;20036;-93
2023/05/09 05:01:44;;;;;;;2.90;2.13;;;;;;;10.15;88.67;102075.56;5029773;28;20083;-89
2023/05/09 05:04:09;;;;;;;3.25;2.55;;;;;;;10.15;89.39;102070.38;5029414;28;20032;-87
2023/05/09 05:06:35;;;;;;;3.78;2.70;;;;;;;10.05;89.36;102054.25;5031848;28;20025;-94
2023/05/09 05:09:01;;;;;;;3.33;2.60;;;;;;;10.07;89.27;102073.16;5032468;28;20029;-86
2023/05/09 05:11:26;;;;;;;3.13;2.17;;;;;;;9.94;89.54;102067.41;5031116;28;20033;-92
2023/05/09 05:13:52;;;;;;;2.75;2.25;;;;;;;9.93;88.79;102065.72;5015002;28;20044;-94
2023/05/09 05:16:17;;;;;;;2.05;1.83;;;;;;;9.95;88.67;102063.94;4997149;28;20078;-85
2023/05/09 05:18:44;;;;;;;3.10;2.03;;;;;;;9.99;88.90;102073.31;5023141;28;20426;-87
2023/05/09 05:21:10;;;;;;;3.38;2.78;;;;;;;9.95;89.84;102066.53;5013256;28;20029;-88
2023/05/09 05:23:35;;;;;;;2.63;2.00;;;;;;;10.00;89.70;102071.59;5029222;28;20558;-86
2023/05/09 05:26:00;;;;;;;2.63;2.20;;;;;;;10.04;88.80;102076.66;5026814;28;20411;-90
2023/05/09 05:28:26;;;;;;;4.38;2.55;;;;;;;9.94;88.99;102066.56;5011143;28;20533;-87
2023/05/09 05:30:52;;;;;;;4.32;2.38;;;;;;;10.01;89.76;102063.78;5034087;28;20029;-92
2023/05/09 05:33:17;;;;;;;3.95;2.00;;;;;;;10.08;88.21;102085.19;5029625;28;20029;-89
2023/05/09 05:35:43;;;;;;;4.03;2.50;;;;;;;10.16;88.22;102083.28;5019220;28;20029;-91
2023/05/09 05:38:08;;;;;;;2.75;1.80;;;;;;;10.17;88.09;102084.13;5027303;28;20025;-94
2023/05/09 05:40:34;;;;;;;4.65;2.25;;;;;;;10.03;87.29;102062.03;5010155;28;20100;-84
2023/05/09 05:43:00;;;;;;;4.10;2.72;;;;;;;9.97;87.41;102051.81;5009249;28;20038;-87
2023/05/09 05:45:25;;;;;;;3.17;2.42;;;;;;;10.14;87.28;102089.38;5029847;28;20030;-92
2023/05/09 05:47:51;;;;;;;2.53;2.00;;;;;;;10.14;87.77;102102.31;5008212;28;20064;-85
2023/05/09 05:50:16;;;;;;;4.55;2.92;;;;;;;10.10;87.54;102091.16;5018398;28;20156;-91
2023/05/09 05:52:42;;;;;;;6.68;2.42;;;;;;;10.09;88.10;102086.03;5015423;28;20034;-93
2023/05/09 05:55:07;;;;;;;3.00;2.00;;;;;;;9.94;87.92;102058.81;5044774;28;20036;-89
2023/05/09 05:57:37;;;;;;;3.55;2.63;;;;;;;10.14;88.30;102085.06;5049991;28;20033;-91
2023/05/09 06:00:06;;;;;;;2.92;2.03;;;;;;;10.33;87.52;102112.22;4993277;28;20034;-83
2023/05/09 06:02:32;;;;;;;4.75;2.30;;;;;;;10.30;87.36;102103.66;5033903;28;20053;-90
2023/05/09 06:04:57;;;;;;;3.08;2.22;;;;;;;10.36;86.47;102102.66;4999616;28;20064;-90
2023/05/09 06:07:22;;;;;;;2.78;2.08;;;;;;;10.35;87.20;102101.81;5019213;28;21135;-93
2023/05/09 06:09:48;;;;;;;3.50;2.25;;;;;;;10.42;86.54;102105.09;5018815;28;20017;-93
2023/05/09 06:12:15;;;;;;;3.47;2.30;;;;;;;10.32;85.66;102078.59;5011640;28;20057;-86
2023/05/09 06:14:41;;;;;;;3.40;2.83;;;;;;;10.19;86.20;102043.56;5018156;28;20514;-86
2023/05/09 06:17:07;;;;;;;3.88;2.22;;;;;;;10.52;86.26;102091.03;5036199;28;20032;-91
2023/05/09 06:19:32;;;;;;;3.30;2.15;;;;;;;10.54;85.08;102104.81;5031013;28;20033;-91
2023/05/09 06:21:58;;;;;;;2.30;1.50;;;;;;;10.48;84.71;102105.78;5023260;28;20490;-92
2023/05/09 06:24:23;;;;;;;2.45;1.75;;;;;;;10.44;85.12;102100.75;5005415;28;20030;-92
2023/05/09 06:26:50;;;;;;;3.58;2.50;;;;;;;10.50;84.99;102110.91;5032753;28;20048;-90
2023/05/09 06:29:16;;;;;;;2.80;1.75;;;;;;;10.37;85.25;102084.50;5019985;28;20438;-87
2023/05/09 06:31:41;;;;;;;3.25;2.28;;;;;;;10.43;84.24;102110.25;5010819;28;20033;-87
2023/05/09 06:34:07;;;;;;;3.35;2.08;;;;;;;10.31;85.21;102102.75;5038124;28;20471;-86
2023/05/09 06:36:33;;;;;;;2.58;2.00;;;;;;;10.23;85.14;102074.53;5037780;28;20102;-84
2023/05/09 06:38:58;;;;;;;4.13;2.67;;;;;;;10.32;84.30;102107.94;5028971;28;20048;-85
2023/05/09 06:41:24;;;;;;;3.60;2.22;;;;;;;10.23;84.87;102095.22;5007254;28;20444;-88
2023/05/09 06:43:50;;;;;;;2.05;1.67;;;;;;;10.23;85.04;102096.94;5004083;28;20034;-83
2023/05/09 06:46:16;;;;;;;4.93;2.78;;;;;;;10.08;85.13;102074.84;5007912;28;20040;-84
2023/05/09 06:48:41;;;;;;;3.45;1.90;;;;;;;10.32;84.92;102114.81;5017517;28;20022;-91
2023/05/09 06:51:07;;;;;;;3.25;2.35;;;;;;;10.13;85.10;102072.13;4991467;28;20049;-87
2023/05/09 06:53:32;;;;;;;2.83;1.85;;;;;;;10.24;85.27;102090.88;5026727;28;20768;-84
2023/05/09 06:55:58;;;;;;;4.38;2.20;;;;;;;10.23;84.25;102078.84;5036914;28;20098;-88
2023/05/09 06:58:23;;;;;;;2.83;1.80;;;;;;;10.41;84.09;102108.56;5045229;28;20029;-85
2023/05/09 07:00:49;;;;;;;4.72;2.35;;;;;;;10.34;84.55;102082.00;5022869;28;20117;-86
2023/05/09 07:03:15;;;;;;;2.95;2.05;;;;;;;10.50;84.60;102101.41;5007938;28;20384;-91
2023/05/09 07:05:40;;;;;;;4.50;3.15;;;;;;;10.54;84.82;102105.66;5032352;28;20030;-87
2023/05/09 07:08:05;;;;;;;2.08;1.75;;;;;;;10.37;84.47;102066.41;5009656;28;20042;-87
2023/05/09 07:10:31;;;;;;;6.97;2.20;;;;;;;10.41;83.19;102096.47;5039768;28;20505;-86
2023/05/09 07:12:57;;;;;;;2.88;1.83;;;;;;;10.26;83.83;102089.09;5044899;28;20472;-86
2023/05/09 07:15:22;;;;;;;2.83;1.90;;;;;;;10.36;82.94;102105.25;5035840;28;20048;-86
2023/05/09 07:17:48;;;;;;;11.27;7.82;;;;;;;10.48;83.80;102110.97;5044092;28;20044;-92
2023/05/09 07:20:13;;;;;;;8.52;5.05;;;;;;;10.45;83.91;102098.13;5017426;28;20556;-87
2023/05/09 07:22:39;;;;;;;3.15;2.00;;;;;;;10.46;83.21;102112.75;5000445;28;20025;-94
2023/05/09 07:25:09;;;;;;;3.95;1.92;;;;;;;10.55;82.60;102109.94;5029712;28;20519;-90
2023/05/09 07:27:35;;;;;;;2.00;1.75;;;;;;;10.49;82.73;102117.84;5003475;28;20788;-90
2023/05/09 07:30:04;;;;;;;2.95;1.55;;;;;;;10.44;83.22;102093.84;5010266;28;20050;-86
2023/05/09 07:32:30;;;;;;;3.08;1.70;;;;;;;10.61;83.72;102116.69;5019194;28;20029;-86
2023/05/09 07:34:55;;;;;;;3.05;2.00;;;;;;;10.42;83.27;102087.84;5013886;28;20033;-84
2023/05/09 07:37:21;;;;;;;2.90;2.13;;;;;;;10.62;82.93;102114.06;5022126;28;20517;-90
2023/05/09 07:39:46;;;;;;;2.25;1.58;;;;;;;10.49;81.96;102102.31;5006101;28;20025;-90
2023/05/09 07:42:12;;;;;;;3.33;2.20;;;;;;;10.69;82.80;102121.66;5007843;28;20028;-89
2023/05/09 07:44:38;;;;;;;4.20;1.85;;;;;;;10.66;82.36;102122.59;5034836;28;20061;-84
2023/05/09 07:47:04;;;;;;;2.90;1.92;;;;;;;10.58;83.50;102103.81;5052525;28;20029;-92
2023/05/09 07:49:32;;;;;;;4.20;2.50;;;;;;;10.61;82.42;102112.34;5017693;28;20033;-84
2023/05/09 07:51:58;;;;;;;2.05;1.83;;;;;;;10.61;83.08;102095.97;5000479;28;20457;-85
2023/05/09 07:54:23;;;;;;;2.97;1.92;;;;;;;10.67;82.28;102113.94;5025123;28;20025;-88
2023/05/09 07:56:48;;;;;;;2.58;2.08;;;;;;;10.55;82.84;102081.47;5033268;28;20046;-83
2023/05/09 07:59:14;;;;;;;2.47;1.92;;;;;;;10.75;82.52;102109.41;5042629;28;20394;-91
2023/05/09 08:01:39;;;;;;;4.10;2.03;;;;;;;10.84;83.78;102116.09;5032420;28;20037;-81
2023/05/09 08:04:07;;;;;;;3.70;2.65;;;;;;;10.86;82.28;102116.91;5023385;28;20378;-84
2023/05/09 08:06:33;;;;;;;3.35;2.70;;;;;;;10.76;82.84;102100.75;5033319;28;20037;-85
2023/05/09 08:08:59;;;;;;;1.60;1.45;;;;;;;10.76;81.93;102118.03;5030045;28;20107;-88
2023/05/09 08:11:24;;;;;;;5.15;2.47;;;;;;;10.81;83.30;102123.94;5008550;28;20479;-90
2023/05/09 08:13:50;;;;;;;4.50;2.13;;;;;;;10.70;83.17;102113.00;5016958;28;20098;-85
2023/05/09 08:16:16;;;;;;;7.30;1.90;;;;;;;10.61;83.48;102094.22;5033378;28;20026;-85
2023/05/09 08:18:42;;;;;;;2.60;2.10;;;;;;;10.79;84.26;102111.03;5032037;28;20554;-90
2023/05/09 08:21:07;;;;;;;3.00;2.35;;;;;;;10.75;84.29;102111.16;5013268;28;20487;-87
2023/05/09 08:23:33;;;;;;;2.95;2.20;;;;;;;10.73;85.25;102105.19;5010173;28;20037;-84
2023/05/09 08:25:58;;;;;;;4.22;2.97;;;;;;;10.76;85.08;102126.66;5020225;28;20459;-88
2023/05/09 08:28:24;;;;;;;3.58;1.92;;;;;;;10.68;85.01;102117.38;5010834;28;20025;-88
2023/05/09 08:30:50;;;;;;;2.47;1.92;;;;;;;10.44;84.25;102109.34;5033359;28;20438;-88
2023/05/09 08:33:16;;;;;;;3.17;2.17;;;;;;;10.52;85.17;102133.31;5034981;28;20036;-91
2023/05/09 08:35:41;;;;;;;2.97;2.10;;;;;;;10.44;85.38;102124.88;5022970;28;20415;-84
2023/05/09 08:38:07;;;;;;;2.75;1.58;;;;;;;10.20;86.58;102099.56;5021651;28;20040;-87
2023/05/09 08:40:36;;;;;;;2.58;1.48;;;;;;;10.43;85.67;102130.94;5034085;28;20033;-90
2023/05/09 08:43:04;;;;;;;3.58;2.70;;;;;;;10.49;86.20;102128.19;5039725;28;20411;-87
2023/05/09 08:45:29;;;;;;;3.35;1.95;;;;;;;10.39;85.53;102098.25;5009592;28;20037;-89
2023/05/09 08:47:55;;;;;;;5.18;2.78;;;;;;;10.42;85.13;102123.19;5020241;28;20414;-85
2023/05/09 08:50:20;;;;;;;2.45;1.88;;;;;;;10.40;85.01;102122.38;5002925;28;20088;-87
2023/05/09 08:52:46;;;;;;;4.28;3.25;;;;;;;10.36;85.90;102124.22;5012275;28;20030;-84
2023/05/09 08:55:12;;;;;;;4.95;2.65;;;;;;;10.49;85.82;102135.09;5028643;28;20040;-83
2023/05/09 08:57:38;;;;;;;2.88;1.95;;;;;;;10.50;85.28;102127.28;5008666;28;20029;-84
2023/05/09 09:00:09;;;;;;;3.30;2.13;;;;;;;10.71;84.35;102138.84;5021834;28;20026;-84
2023/05/09 09:02:35;;;;;;;3.08;1.85;;;;;;;10.46;84.90;102104.97;5025860;28;20037;-92
2023/05/09 09:05:01;;;;;;;3.88;1.95;;;;;;;10.66;85.01;102130.38;5023894;28;20038;-86
2023/05/09 09:07:27;;;;;;;3.20;2.42;;;;;;;10.29;85.45;102073.50;5035190;28;20033;-89
2023/05/09 09:09:56;;;;;;;3.60;2.92;;;;;;;10.50;85.11;102105.75;5044168;28;20082;-93
2023/05/09 09:12:22;;;;;;;2.33;1.88;;;;;;;10.69;84.89;102126.84;5024014;28;20074;-86
2023/05/09 09:14:52;;;;;;;4.15;2.05;;;;;;;10.81;85.04;102136.88;5012466;28;20108;-90
2023/05/09 09:17:19;;;;;;;5.82;2.05;;;;;;;10.75;84.00;102124.09;5015204;28;20032;-90
2023/05/09 09:19:44;;;;;;;3.78;2.03;;;;;;;11.02;84.09;102128.56;5027991;28;20033;-90
2023/05/09 09:22:12;;;;;;;2.40;1.65;;;;;;;11.05;83.18;102130.22;5005776;28;20036;-84
2023/05/09 09:24:38;;;;;;;3.15;2.60;;;;;;;11.02;81.14;102128.56;5011734;28;20033;-90
2023/05/09 09:27:05;;;;;;;2.13;1.75;;;;;;;10.76;82.03;102108.53;4995848;28;20338;-84
2023/05/09 09:29:30;;;;;;;8.55;3.38;;;;;;;10.93;82.47;102123.63;5025148;28;20034;-84
2023/05/09 09:31:56;;;;;;;4.60;2.35;;;;;;;10.95;82.12;102121.84;5006805;28;20475;-90
2023/05/09 09:34:22;;;;;;;4.78;3.08;;;;;;;11.02;81.91;102122.53;5020979;28;20025;-86
2023/05/09 09:36:48;;;;;;;4.22;2.15;;;;;;;11.12;81.45;102124.00;5027704;28;20033;-89
2023/05/09 09:39:13;;;;;;;2.28;1.63;;;;;;;11.08;81.00;102117.16;5012254;28;20022;-83
2023/05/09 09:41:39;;;;;;;2.33;1.85;;;;;;;11.13;81.44;102121.34;4991045;28;20041;-83
2023/05/09 09:44:08;;;;;;;11.80;1.77;;;;;;;11.09;82.39;102124.06;5010313;28;20106;-84
2023/05/09 09:47:00;;;;;;;3.63;2.22;;;;;;;11.06;83.30;102130.16;5025855;28;20486;-82
2023/05/09 09:49:25;;;;;;;4.47;1.67;;;;;;;10.98;81.95;102119.16;5013039;28;20042;-84
2023/05/09 09:51:52;;;;;;;2.75;2.35;;;;;;;11.08;81.70;102112.84;5018546;28;20035;-85
2023/05/09 09:54:18;;;;;;;7.25;1.58;;;;;;;11.18;80.12;102135.00;5031542;28;20029;-85
2023/05/09 09:56:44;;;;;;;2.33;1.63;;;;;;;11.20;79.99;102133.22;5025436;28;20079;-91
2023/05/09 09:59:16;;;;;;;1.55;1.00;;;;;;;11.12;79.41;102114.47;5030644;28;20028;-87
2023/05/09 10:02:02;;;;;;;2.40;1.50;;;;;;;11.16;80.24;102120.41;5048950;28;20021;-89
2023/05/09 10:04:35;;;;;;;3.20;2.00;;;;;;;11.20;82.44;102135.81;5008677;28;20124;-92
2023/05/09 10:07:04;;;;;;;;;;;;;;;11.18;82.38;102134.16;5023967;28;20049;-89
2023/05/09 10:09:30;;;;;;;2.58;1.77;;;;;;;10.96;83.68;102135.63;5032767;28;19913;-93
2023/05/09 10:11:56;;;;;;;2.08;1.70;;;;;;;10.89;83.59;102119.41;5023179;28;20522;-85
2023/05/09 10:14:23;;;;;;;4.95;1.65;;;;;;;10.94;85.05;102125.31;5024285;28;20029;-91
2023/05/09 10:16:50;;;;;;;1.70;1.58;;;;;;;11.02;84.17;102133.75;5034534;28;20482;-84
2023/05/09 10:19:19;;;;;;;2.13;1.85;;;;;;;11.05;84.27;102133.66;5013178;28;20051;-93
2023/05/09 10:21:52;;;;;;;3.40;2.13;;;;;;;11.06;84.13;102122.41;5035875;28;20044;-89
2023/05/09 10:24:26;;;;;;;3.13;1.95;;;;;;;11.12;84.47;102124.84;5049133;28;20513;-90
2023/05/09 10:26:52;;;;;;;2.90;2.13;;;;;;;11.01;84.39;102126.88;5012964;28;20057;-85
2023/05/09 10:29:21;;;;;;;4.68;2.72;;;;;;;10.97;83.82;102120.06;5010393;28;20057;-87
2023/05/09 10:31:47;;;;;;;2.47;1.38;;;;;;;10.90;85.51;102128.88;5008540;28;20021;-85
2023/05/09 10:34:13;;;;;;;2.90;1.50;;;;;;;10.83;84.75;102104.06;5009901;28;20037;-89
2023/05/09 10:36:38;;;;;;;2.03;1.83;;;;;;;10.89;84.76;102107.31;4994235;28;20096;-85
2023/05/09 10:39:04;;;;;;;8.82;2.63;;;;;;;10.99;84.28;102112.25;4995778;28;20030;-82
2023/05/09 10:41:29;;;;;;;7.57;1.80;;;;;;;11.01;84.82;102106.16;5013424;28;20022;-87
2023/05/09 10:43:56;;;;;;;2.40;1.30;;;;;;;11.13;82.92;102108.41;4995518;28;20131;-84
2023/05/09 10:46:22;;;;;;;2.92;2.15;;;;;;;11.23;83.91;102115.91;5012647;28;20060;-89
2023/05/09 10:48:47;;;;;;;3.08;1.92;;;;;;;11.22;83.65;102122.00;5012223;28;20117;-84
2023/05/09 10:51:13;;;;;;;2.80;1.95;;;;;;;11.13;82.42;102092.00;5023738;28;20079;-86
2023/05/09 10:53:46;;;;;;;2.25;1.60;;;;;;;11.40;82.54;102118.84;5012874;28;20048;-91
2023/05/09 10:56:32;;;;;;;2.60;1.65;;;;;;;11.41;81.82;102099.84;5013453;28;20563;-89
2023/05/09 10:58:58;;;;;;;3.00;1.70;;;;;;;11.49;80.46;102113.41;5012104;28;20104;-86
2023/05/09 11:01:28;;;;;;;2.15;1.42;;;;;;;11.49;80.92;102116.00;4996463;28;20033;-86
2023/05/09 11:03:55;;;;;;;2.25;1.63;;;;;;;11.47;80.95;102099.66;5019656;28;20055;-89
2023/05/09 11:06:49;;;;;;;3.75;2.38;;;;;;;11.60;81.70;102115.69;4993659;28;20411;-85
2023/05/09 11:09:26;;;;;;;3.30;2.15;;;;;;;11.58;81.51;102113.16;5027099;28;20044;-88
2023/05/09 11:11:56;;;;;;;4.00;2.13;;;;;;;11.42;81.47;102104.13;5021991;28;20069;-87
2023/05/09 11:14:44;;;;;;;2.75;2.17;;;;;;;11.14;81.19;102040.16;5029155;28;20021;-86
2023/05/09 11:17:22;;;;;;;4.07;3.03;;;;;;;11.48;81.54;102097.00;5028628;28;20048;-88
2023/05/09 11:19:50;;;;;;;3.17;2.38;;;;;;;11.47;81.63;102090.13;5030841;28;20122;-92
2023/05/09 11:22:30;;;;;;;2.67;1.95;;;;;;;11.49;81.41;102095.28;5026787;28;20030;-90
2023/05/09 11:25:15;;;;;;;4.25;2.33;;;;;;;11.51;81.00;102080.56;5000087;28;20041;-93